Westport, South Dakota
Current Conditions -  °F | °C
As of 4:53 AM on Sunday 23 Nov 2014 (Local Time) from KABR Reporting Station
Overcast Overcast  
Wind Chill: 30°   Ceiling: 5000
Heat Index: 40°   Visibility: 10mi
Dew Point: 34°   Wind: 21mph
Humidity: 79%   Direction: 290°WNW
Pressure: 29.44"   Gusts: 29mph
Location:  45.65°N, 98.5°W
Report Text: KABR 231053Z AUTO 29018G25KT 10SM OVC050 04/01 A2944 RMK AO2 PK WND 29028/1039 SLP979 T00440011
Loading
Personal Weather Stations






























Interactive Weather Map New forecast layout! Learn more

10-Day Weather Forecast

Advertisements
Track Severe Weather on mobile